Taconic Lake, New York
Current Conditions -  °F | °C
As of 2:52 PM on Thursday 29 Jan 2015 (Local Time) from KAQW Reporting Station
Few Clouds Few Clouds  
Wind Chill: 28°   Ceiling: Unl
Heat Index: 37°   Visibility: 10mi
Dew Point: -6°   Wind: 15mph
Humidity: 16%   Direction: 100°E
Pressure: 30.07"   Gusts: 24mph
Location:  42.7192°N, 73.3641°W
Report Text: KAQW 291952Z AUTO 10013G21KT 10SM FEW120 03/M21 A3007 RMK AO2 SLP197 T00281211
Loading
Personal Weather Stations






























Interactive Weather Map New forecast layout! Learn more

10-Day Weather Forecast

Advertisements
Track Severe Weather on mobile